Time;durP1;ratioP1;P1;durP2;ratioP2;P2;SDS_P1;SDS_P2;PMS_P1;PMS_P2;Temp;Humidity;BMP_temperature;BMP_pressure;BME280_temperature;BME280_humidity;BME280_pressure;Samples;Min_cycle;Max_cycle;Signal;HPM_P1;HPM_P2
2021/07/12 00:01:37;;;;;;;4.05;3.75;;;23.70;99.90;;;;;;5090510;28;20230;-74
2021/07/12 00:04:04;;;;;;;4.28;3.85;;;23.70;99.90;;;;;;5090075;28;20676;-74
2021/07/12 00:06:30;;;;;;;6.15;3.95;;;23.50;99.90;;;;;;5090187;28;20620;-74
2021/07/12 00:09:00;;;;;;;4.40;4.10;;;23.50;99.90;;;;;;5089930;28;20328;-74
2021/07/12 00:11:28;;;;;;;4.05;3.85;;;23.60;99.90;;;;;;5090190;28;20579;-75
2021/07/12 00:13:55;;;;;;;4.43;4.22;;;23.60;99.90;;;;;;5090346;28;20222;-75
2021/07/12 00:16:21;;;;;;;4.00;3.80;;;23.60;99.90;;;;;;5090514;28;20202;-74
2021/07/12 00:18:48;;;;;;;4.28;3.90;;;23.50;99.90;;;;;;5090277;28;20227;-75
2021/07/12 00:21:15;;;;;;;4.25;3.90;;;23.60;99.90;;;;;;5090309;28;20261;-75
2021/07/12 00:23:41;;;;;;;6.13;3.63;;;23.50;99.90;;;;;;5090097;28;20614;-75
2021/07/12 00:26:10;;;;;;;4.47;4.10;;;23.50;99.90;;;;;;5090058;28;20245;-74
2021/07/12 00:28:36;;;;;;;3.83;3.63;;;23.50;99.90;;;;;;5090263;28;20211;-74
2021/07/12 00:31:04;;;;;;;4.60;4.30;;;23.50;99.90;;;;;;5090029;28;20264;-74
2021/07/12 00:33:31;;;;;;;4.28;4.00;;;23.50;99.90;;;;;;5090043;28;20242;-74
2021/07/12 00:35:58;;;;;;;4.53;4.22;;;23.50;99.90;;;;;;5090051;28;20550;-74
2021/07/12 00:38:25;;;;;;;4.40;4.03;;;23.50;99.90;;;;;;5090126;28;20238;-74
2021/07/12 00:40:51;;;;;;;4.80;4.50;;;23.40;99.90;;;;;;5089983;28;20272;-74
2021/07/12 00:43:19;;;;;;;4.80;4.50;;;23.40;99.90;;;;;;5089871;28;20255;-74
2021/07/12 00:45:46;;;;;;;4.50;4.20;;;23.30;99.90;;;;;;5089558;28;20749;-74
2021/07/12 00:48:13;;;;;;;4.55;4.28;;;23.30;99.90;;;;;;5089430;28;20231;-72
2021/07/12 00:50:43;;;;;;;4.45;4.10;;;23.30;99.90;;;;;;5089782;28;20219;-72
2021/07/12 00:53:10;;;;;;;5.20;4.25;;;23.30;99.90;;;;;;5089381;28;20256;-72
2021/07/12 00:55:40;;;;;;;4.88;4.47;;;23.30;99.90;;;;;;5088978;28;20213;-71
2021/07/12 00:58:09;;;;;;;6.10;4.88;;;23.30;99.90;;;;;;5089417;28;20254;-71
2021/07/12 01:00:38;;;;;;;4.30;4.00;;;23.20;99.90;;;;;;5089141;28;20761;-72
2021/07/12 01:03:05;;;;;;;4.97;4.68;;;23.20;99.90;;;;;;5089204;28;20206;-73
2021/07/12 01:05:32;;;;;;;4.72;4.15;;;23.20;99.90;;;;;;5089490;28;20624;-73
2021/07/12 01:07:59;;;;;;;4.47;4.18;;;23.20;99.90;;;;;;5088491;28;20243;-73
2021/07/12 01:10:27;;;;;;;4.43;4.20;;;23.20;99.90;;;;;;5089091;28;20613;-73
2021/07/12 01:13:13;;;;;;;5.15;4.65;;;23.20;99.90;;;;;;5089108;28;20268;-73
2021/07/12 01:15:49;;;;;;;4.25;3.90;;;23.20;99.90;;;;;;5070386;28;20894;-73
2021/07/12 01:18:24;;;;;;;4.38;4.00;;;23.10;99.90;;;;;;5069048;28;20199;-73
2021/07/12 01:21:29;;;;;;;4.30;4.10;;;23.10;99.90;;;;;;5068834;28;20242;-73
2021/07/12 01:24:40;;;;;;;5.30;4.90;;;23.10;99.90;;;;;;5068710;28;20206;-73
2021/07/12 01:27:53;;;;;;;4.55;4.25;;;23.00;99.90;;;;;;5037326;28;20264;-73
2021/07/12 01:30:27;;;;;;;5.15;4.40;;;23.00;99.90;;;;;;5068766;28;20191;-73
2021/07/12 01:33:07;;;;;;;4.65;4.30;;;23.00;99.90;;;;;;5068666;28;20223;-73
2021/07/12 01:35:45;;;;;;;4.72;4.53;;;23.00;99.90;;;;;;5068399;28;20719;-73
2021/07/12 01:38:18;;;;;;;4.30;4.10;;;23.00;99.90;;;;;;5068662;28;20237;-73
2021/07/12 01:40:51;;;;;;;4.50;4.30;;;23.00;99.90;;;;;;5068437;28;20650;-73
2021/07/12 01:43:31;;;;;;;4.50;4.20;;;22.90;99.90;;;;;;5068439;28;20657;-74
2021/07/12 01:46:03;;;;;;;4.72;4.32;;;22.90;99.90;;;;;;5068266;28;20238;-74
2021/07/12 01:48:43;;;;;;;4.47;4.28;;;22.90;99.90;;;;;;5068426;28;20246;-74
2021/07/12 01:51:12;;;;;;;4.38;4.07;;;22.90;99.90;;;;;;5068561;28;20195;-74
2021/07/12 01:53:47;;;;;;;5.07;4.38;;;22.90;99.90;;;;;;5068243;28;20543;-74
2021/07/12 01:56:21;;;;;;;4.75;4.35;;;22.90;99.90;;;;;;5068451;28;20195;-74
2021/07/12 01:58:53;;;;;;;6.13;4.15;;;22.90;99.90;;;;;;5068599;28;20611;-73
2021/07/12 02:01:22;;;;;;;4.90;4.30;;;22.80;99.90;;;;;;5068345;28;20227;-73
2021/07/12 02:03:50;;;;;;;4.25;3.92;;;22.80;99.90;;;;;;5068396;28;20233;-73
2021/07/12 02:06:21;;;;;;;4.82;4.40;;;22.70;99.90;;;;;;5068450;28;20247;-73
2021/07/12 02:08:50;;;;;;;4.78;4.38;;;22.70;99.90;;;;;;5068114;28;20293;-73
2021/07/12 02:11:18;;;;;;;5.18;4.78;;;22.70;99.90;;;;;;5068400;28;20207;-73
2021/07/12 02:13:48;;;;;;;5.03;4.30;;;22.60;99.90;;;;;;5068277;28;20255;-73
2021/07/12 02:16:16;;;;;;;4.57;4.35;;;22.60;99.90;;;;;;5067888;28;20727;-73
2021/07/12 02:18:44;;;;;;;4.55;4.15;;;22.60;99.90;;;;;;5068054;28;20239;-73
2021/07/12 02:21:12;;;;;;;4.63;4.43;;;22.60;99.90;;;;;;5070055;28;20634;-73
2021/07/12 02:23:40;;;;;;;4.63;4.32;;;22.60;99.90;;;;;;5072281;28;20260;-73
2021/07/12 02:26:07;;;;;;;6.32;4.55;;;22.50;99.90;;;;;;5072045;28;20203;-74
2021/07/12 02:28:34;;;;;;;4.72;4.40;;;22.60;99.90;;;;;;5071943;28;20701;-74
2021/07/12 02:31:02;;;;;;;4.35;4.15;;;22.50;99.90;;;;;;5072176;28;20242;-74
2021/07/12 02:33:29;;;;;;;3.97;3.78;;;22.60;99.90;;;;;;5072048;28;20239;-74
2021/07/12 02:35:56;;;;;;;18.13;4.68;;;22.50;99.90;;;;;;5071885;28;20544;-74
2021/07/12 02:38:26;;;;;;;4.60;4.20;;;22.50;99.90;;;;;;5074670;28;20242;-73
2021/07/12 02:40:53;;;;;;;4.90;4.50;;;22.50;99.90;;;;;;5089568;28;20226;-74
2021/07/12 02:43:22;;;;;;;4.63;4.43;;;22.40;99.90;;;;;;5092219;28;20248;-74
2021/07/12 02:45:49;;;;;;;4.30;4.07;;;22.40;99.90;;;;;;5088794;28;20242;-74
2021/07/12 02:48:16;;;;;;;4.85;4.40;;;22.40;99.90;;;;;;5090094;28;20223;-74
2021/07/12 02:50:43;;;;;;;5.45;4.75;;;22.50;99.90;;;;;;5090621;28;20257;-74
2021/07/12 02:53:15;;;;;;;4.95;4.43;;;22.40;99.90;;;;;;5089059;28;20209;-74
2021/07/12 02:55:44;;;;;;;4.78;4.50;;;22.40;99.90;;;;;;5089843;28;20283;-74
2021/07/12 02:58:11;;;;;;;5.23;4.83;;;22.40;99.90;;;;;;5089677;28;20242;-74
2021/07/12 03:00:38;;;;;;;4.60;4.35;;;22.40;99.90;;;;;;5089589;28;20260;-74
2021/07/12 03:03:05;;;;;;;4.63;4.32;;;22.40;99.90;;;;;;5089273;28;20277;-75
2021/07/12 03:05:33;;;;;;;5.07;4.72;;;22.40;99.90;;;;;;5089771;28;20282;-76
2021/07/12 03:08:05;;;;;;;4.25;4.05;;;22.40;99.90;;;;;;5089231;28;20256;-75
2021/07/12 03:10:37;;;;;;;4.88;4.57;;;22.40;99.90;;;;;;5089354;28;20199;-76
2021/07/12 03:13:07;;;;;;;5.60;5.20;;;22.40;99.90;;;;;;5089472;28;20327;-75
2021/07/12 03:15:40;;;;;;;5.13;4.82;;;22.40;99.90;;;;;;5089213;28;20210;-76
2021/07/12 03:18:12;;;;;;;4.78;4.45;;;22.40;99.90;;;;;;5088977;28;20566;-75
2021/07/12 03:20:44;;;;;;;5.00;4.70;;;22.50;99.90;;;;;;5089100;28;20335;-74
2021/07/12 03:23:14;;;;;;;4.78;4.47;;;22.50;99.90;;;;;;5088832;28;20229;-75
2021/07/12 03:25:43;;;;;;;4.93;4.72;;;22.50;99.90;;;;;;5089209;28;20210;-76
2021/07/12 03:28:11;;;;;;;4.50;4.13;;;22.50;99.90;;;;;;5090408;28;20241;-75
2021/07/12 03:30:39;;;;;;;5.15;4.68;;;22.50;99.90;;;;;;5089992;28;20292;-74
2021/07/12 03:33:07;;;;;;;4.50;4.30;;;22.40;99.90;;;;;;5088158;28;20238;-74
2021/07/12 03:35:37;;;;;;;4.40;4.10;;;22.50;99.90;;;;;;5089604;28;20583;-74
2021/07/12 03:38:04;;;;;;;4.82;4.47;;;22.50;99.90;;;;;;5089696;28;20792;-75
2021/07/12 03:40:31;;;;;;;4.40;4.10;;;22.50;99.90;;;;;;5089724;28;20245;-74
2021/07/12 03:42:58;;;;;;;4.93;4.60;;;22.50;99.90;;;;;;5089547;28;20291;-74
2021/07/12 03:45:26;;;;;;;4.38;4.18;;;22.40;99.90;;;;;;5090566;28;20243;-75
2021/07/12 03:47:53;;;;;;;4.30;4.10;;;22.50;99.90;;;;;;5090838;28;20619;-74
2021/07/12 03:50:20;;;;;;;4.60;4.30;;;22.50;99.90;;;;;;5090758;28;20203;-74
2021/07/12 03:52:49;;;;;;;5.70;5.00;;;22.50;99.90;;;;;;5090830;28;20207;-74
2021/07/12 03:55:20;;;;;;;5.03;4.78;;;22.50;99.90;;;;;;5090629;28;20238;-74
2021/07/12 03:57:48;;;;;;;4.90;4.60;;;22.50;99.90;;;;;;5090768;28;20195;-74
2021/07/12 04:00:18;;;;;;;5.20;4.80;;;22.50;99.90;;;;;;5090728;28;20198;-74
2021/07/12 04:02:47;;;;;;;4.85;4.50;;;22.50;99.90;;;;;;5090447;28;20234;-74
2021/07/12 04:05:16;;;;;;;5.07;4.78;;;22.50;99.90;;;;;;5090515;28;20245;-74
2021/07/12 04:07:43;;;;;;;4.85;4.55;;;22.50;99.90;;;;;;5090906;28;20234;-75
2021/07/12 04:10:12;;;;;;;4.73;4.43;;;22.50;99.90;;;;;;5090091;28;20256;-74
2021/07/12 04:12:39;;;;;;;5.43;5.03;;;22.50;99.90;;;;;;5090436;28;20311;-74
2021/07/12 04:15:07;;;;;;;5.10;4.80;;;22.50;99.90;;;;;;5090195;28;20248;-74
2021/07/12 04:17:34;;;;;;;5.15;4.85;;;22.50;99.90;;;;;;5090146;28;20251;-75
2021/07/12 04:20:02;;;;;;;5.10;4.80;;;22.50;99.90;;;;;;5090165;28;20199;-74
2021/07/12 04:22:29;;;;;;;5.25;4.90;;;22.50;99.90;;;;;;5089854;28;20761;-74
2021/07/12 04:24:55;;;;;;;4.95;4.65;;;22.50;99.90;;;;;;5090057;28;20677;-74
2021/07/12 04:27:22;;;;;;;4.88;4.57;;;22.50;99.90;;;;;;5090118;28;20206;-75
2021/07/12 04:29:49;;;;;;;5.22;4.88;;;22.50;99.90;;;;;;5090179;28;20669;-75
2021/07/12 04:32:15;;;;;;;4.43;4.22;;;22.60;99.90;;;;;;5090184;28;20226;-74
2021/07/12 04:34:42;;;;;;;4.97;4.60;;;22.60;99.90;;;;;;5089821;28;20742;-74
2021/07/12 04:37:10;;;;;;;5.70;5.18;;;22.60;99.90;;;;;;5089553;28;20704;-74
2021/07/12 04:39:37;;;;;;;6.13;5.60;;;22.60;99.90;;;;;;5090101;28;20234;-74
2021/07/12 04:42:04;;;;;;;5.07;4.80;;;22.60;99.90;;;;;;5089677;28;20318;-74
2021/07/12 04:44:30;;;;;;;5.63;5.30;;;22.60;99.90;;;;;;5089008;28;20238;-74
2021/07/12 04:46:59;;;;;;;4.72;4.43;;;22.60;99.90;;;;;;5089881;28;20207;-74
2021/07/12 04:49:26;;;;;;;5.28;5.03;;;22.60;99.90;;;;;;5089670;28;20249;-74
2021/07/12 04:51:53;;;;;;;5.10;4.80;;;22.60;99.90;;;;;;5089807;28;20203;-74
2021/07/12 04:54:21;;;;;;;5.30;4.90;;;22.60;99.90;;;;;;5089578;28;20245;-74
2021/07/12 04:56:47;;;;;;;5.00;4.68;;;22.60;99.90;;;;;;5089600;28;20234;-75
2021/07/12 04:59:16;;;;;;;5.53;5.13;;;22.60;99.90;;;;;;5089525;28;20246;-75
2021/07/12 05:01:42;;;;;;;5.18;4.88;;;22.60;99.90;;;;;;5089439;28;20731;-74
2021/07/12 05:04:09;;;;;;;5.13;4.93;;;22.60;99.90;;;;;;5089446;28;20203;-74
2021/07/12 05:06:36;;;;;;;5.15;4.85;;;22.60;99.90;;;;;;5089478;28;20199;-74
2021/07/12 05:09:04;;;;;;;5.55;4.68;;;22.60;99.90;;;;;;5089123;28;20234;-75
2021/07/12 05:11:32;;;;;;;4.78;4.57;;;22.60;99.90;;;;;;5089474;28;20234;-74
2021/07/12 05:14:00;;;;;;;5.78;5.40;;;22.60;99.90;;;;;;5089060;28;20277;-75
2021/07/12 05:16:28;;;;;;;5.15;4.85;;;22.60;99.90;;;;;;5089050;28;20207;-75
2021/07/12 05:18:55;;;;;;;5.63;5.32;;;22.60;99.90;;;;;;5089329;28;20246;-74
2021/07/12 05:21:22;;;;;;;5.38;5.07;;;22.60;99.90;;;;;;5089226;28;20203;-74
2021/07/12 05:23:49;;;;;;;4.97;4.68;;;22.60;99.90;;;;;;5088826;28;20230;-74
2021/07/12 05:26:15;;;;;;;6.43;4.43;;;22.60;99.90;;;;;;5087652;28;20234;-74
2021/07/12 05:28:43;;;;;;;5.00;4.70;;;22.60;99.90;;;;;;5089138;28;20199;-74
2021/07/12 05:31:10;;;;;;;4.65;4.38;;;22.60;99.90;;;;;;5088957;28;20720;-74
2021/07/12 05:33:37;;;;;;;4.80;4.50;;;22.70;99.90;;;;;;5088595;28;20672;-74
2021/07/12 05:36:03;;;;;;;5.13;4.82;;;22.70;99.90;;;;;;5088857;28;20229;-74
2021/07/12 05:38:30;;;;;;;5.00;4.70;;;22.70;99.90;;;;;;5088911;28;20242;-74
2021/07/12 05:40:57;;;;;;;5.40;4.88;;;22.80;99.90;;;;;;5089042;28;20264;-74
2021/07/12 05:43:23;;;;;;;5.32;5.03;;;22.80;99.90;;;;;;5088749;28;20223;-75
2021/07/12 05:45:52;;;;;;;4.70;4.50;;;22.80;99.90;;;;;;5088748;28;20695;-74
2021/07/12 05:48:18;;;;;;;5.07;4.63;;;22.80;99.90;;;;;;5088618;28;20268;-74
2021/07/12 05:50:45;;;;;;;5.30;4.90;;;22.80;99.90;;;;;;5088920;28;20564;-74
2021/07/12 05:53:14;;;;;;;4.80;4.57;;;22.80;99.90;;;;;;5088721;28;20241;-74
2021/07/12 05:55:40;;;;;;;4.43;4.13;;;22.80;99.90;;;;;;5088572;28;20207;-74
2021/07/12 05:58:07;;;;;;;4.93;4.53;;;22.80;99.90;;;;;;5088688;28;20246;-74
2021/07/12 06:00:34;;;;;;;5.35;4.95;;;22.80;99.90;;;;;;5088580;28;20652;-74
2021/07/12 06:03:02;;;;;;;4.93;4.68;;;22.80;99.90;;;;;;5088469;28;20226;-74
2021/07/12 06:05:28;;;;;;;4.70;4.32;;;22.90;99.90;;;;;;5088469;28;20584;-74
2021/07/12 06:07:55;;;;;;;5.22;4.72;;;22.90;99.90;;;;;;5088469;28;20210;-73
2021/07/12 06:10:21;;;;;;;4.40;4.20;;;22.90;99.90;;;;;;5088419;28;20273;-74
2021/07/12 06:12:48;;;;;;;4.90;4.60;;;22.90;99.90;;;;;;5088307;28;20223;-74
2021/07/12 06:15:15;;;;;;;4.65;4.35;;;22.90;99.90;;;;;;5088374;28;20295;-74
2021/07/12 06:17:41;;;;;;;4.45;4.20;;;22.90;99.90;;;;;;5088562;28;20210;-74
2021/07/12 06:20:14;;;;;;;4.80;4.40;;;22.90;99.90;;;;;;5088527;28;20251;-74
2021/07/12 06:22:40;;;;;;;5.13;4.72;;;22.90;99.90;;;;;;5088157;28;20703;-74
2021/07/12 06:25:08;;;;;;;5.15;4.72;;;22.90;99.90;;;;;;5088340;28;20233;-74
2021/07/12 06:27:34;;;;;;;5.13;4.72;;;22.90;99.90;;;;;;5088537;28;20207;-74
2021/07/12 06:30:01;;;;;;;5.70;5.22;;;22.90;99.90;;;;;;5088514;28;20252;-74
2021/07/12 06:32:28;;;;;;;5.60;5.30;;;22.90;99.90;;;;;;5088114;28;20253;-74
2021/07/12 06:34:54;;;;;;;5.60;5.22;;;22.90;99.90;;;;;;5088347;28;20214;-74
2021/07/12 06:37:22;;;;;;;5.50;5.10;;;22.90;99.90;;;;;;5087954;28;20259;-74
2021/07/12 06:39:49;;;;;;;7.13;6.43;;;23.00;99.90;;;;;;5088290;28;20238;-74
2021/07/12 06:42:15;;;;;;;6.88;6.20;;;23.00;99.90;;;;;;5087885;28;20661;-74
2021/07/12 06:44:42;;;;;;;5.97;5.57;;;23.00;99.90;;;;;;5088116;28;20245;-74
2021/07/12 06:47:09;;;;;;;5.97;5.65;;;23.00;99.90;;;;;;5087985;28;20231;-74
2021/07/12 06:49:36;;;;;;;5.50;5.20;;;22.90;99.90;;;;;;5088210;28;20222;-74
2021/07/12 06:52:02;;;;;;;5.65;5.30;;;23.00;99.90;;;;;;5088087;28;20202;-74
2021/07/12 06:54:30;;;;;;;5.65;5.25;;;23.00;99.90;;;;;;5087901;28;20217;-74
2021/07/12 06:56:57;;;;;;;5.80;5.32;;;23.00;99.90;;;;;;5088217;28;20586;-74
2021/07/12 06:59:24;;;;;;;6.22;5.72;;;23.00;99.90;;;;;;5088342;28;20206;-74
2021/07/12 07:01:50;;;;;;;5.75;5.35;;;23.00;99.90;;;;;;5087782;28;20718;-74
2021/07/12 07:04:17;;;;;;;5.72;5.32;;;23.10;99.90;;;;;;5087859;28;20291;-74
2021/07/12 07:06:44;;;;;;;5.72;5.28;;;23.10;99.90;;;;;;5088976;28;20242;-74
2021/07/12 07:09:11;;;;;;;5.63;5.28;;;23.10;99.90;;;;;;5091362;28;20269;-74
2021/07/12 07:11:39;;;;;;;5.18;4.80;;;23.10;99.90;;;;;;5091765;28;20259;-74
2021/07/12 07:14:06;;;;;;;5.30;4.90;;;23.10;99.90;;;;;;5091454;28;20261;-74
2021/07/12 07:16:33;;;;;;;5.32;4.93;;;23.20;99.90;;;;;;5091728;28;20219;-74
2021/07/12 07:18:59;;;;;;;5.40;4.90;;;23.20;99.90;;;;;;5091467;28;20213;-74
2021/07/12 07:21:26;;;;;;;4.95;4.65;;;23.30;99.90;;;;;;5091594;28;20300;-74
2021/07/12 07:23:52;;;;;;;4.80;4.60;;;23.30;99.90;;;;;;5091269;28;20262;-74
2021/07/12 07:26:19;;;;;;;5.47;4.97;;;23.40;99.90;;;;;;5091089;28;20550;-75
2021/07/12 07:28:47;;;;;;;5.13;4.70;;;23.50;99.90;;;;;;5091386;28;20238;-74
2021/07/12 07:31:14;;;;;;;6.03;4.50;;;23.50;99.90;;;;;;5091536;28;20231;-74
2021/07/12 07:33:41;;;;;;;5.10;4.70;;;23.60;99.90;;;;;;5091350;28;20199;-74
2021/07/12 07:36:08;;;;;;;4.90;4.60;;;23.60;99.90;;;;;;5091088;28;20213;-74
2021/07/12 07:38:35;;;;;;;5.03;4.65;;;23.70;99.90;;;;;;5091002;28;20687;-74
2021/07/12 07:41:01;;;;;;;5.20;4.75;;;23.70;99.90;;;;;;5090833;28;20733;-74
2021/07/12 07:43:28;;;;;;;5.18;4.70;;;23.80;99.90;;;;;;5090839;28;20312;-74
2021/07/12 07:45:56;;;;;;;4.75;4.55;;;23.80;99.90;;;;;;5090966;28;20217;-74
2021/07/12 07:48:22;;;;;;;4.95;4.55;;;23.90;99.90;;;;;;5090727;28;20556;-74
2021/07/12 07:50:49;;;;;;;5.20;4.80;;;24.00;99.90;;;;;;5090906;28;20237;-74
2021/07/12 07:53:16;;;;;;;4.97;4.70;;;24.10;99.90;;;;;;5090673;28;20630;-74
2021/07/12 07:55:43;;;;;;;5.10;4.80;;;24.10;99.90;;;;;;5090721;28;20577;-74
2021/07/12 07:58:09;;;;;;;4.90;4.55;;;24.20;99.90;;;;;;5090676;28;20249;-74
2021/07/12 08:00:37;;;;;;;5.47;5.03;;;24.30;99.90;;;;;;5090769;28;20249;-74
2021/07/12 08:03:05;;;;;;;5.22;4.93;;;24.30;99.90;;;;;;5090568;28;20244;-74
2021/07/12 08:05:32;;;;;;;5.15;4.85;;;24.30;99.90;;;;;;5090405;28;20218;-74
2021/07/12 08:07:59;;;;;;;4.90;4.60;;;24.30;99.90;;;;;;5090460;28;20203;-74
2021/07/12 08:10:25;;;;;;;5.45;5.15;;;24.40;99.90;;;;;;5090569;28;20199;-74
2021/07/12 08:12:52;;;;;;;5.05;4.75;;;24.30;99.90;;;;;;5090325;28;20258;-74
2021/07/12 08:15:20;;;;;;;5.55;5.18;;;24.40;99.90;;;;;;5090210;28;20263;-74
2021/07/12 08:17:50;;;;;;;5.00;4.70;;;24.40;99.90;;;;;;5090239;28;20215;-74
2021/07/12 08:20:18;;;;;;;4.80;4.50;;;24.40;99.90;;;;;;5089949;28;20301;-74
2021/07/12 08:22:47;;;;;;;5.20;4.90;;;24.40;99.90;;;;;;5090325;28;20207;-74
2021/07/12 08:25:15;;;;;;;5.18;4.88;;;24.40;99.90;;;;;;5090327;28;20203;-74
2021/07/12 08:27:42;;;;;;;5.55;5.15;;;24.40;99.90;;;;;;5090058;28;20233;-74
2021/07/12 08:30:10;;;;;;;5.03;4.65;;;24.50;99.90;;;;;;5090432;28;20211;-74
2021/07/12 08:32:38;;;;;;;5.00;4.70;;;24.50;99.90;;;;;;5090194;28;20206;-74
2021/07/12 08:35:05;;;;;;;5.43;5.05;;;24.50;99.90;;;;;;5090278;28;20242;-74
2021/07/12 08:37:33;;;;;;;5.47;5.05;;;24.60;99.90;;;;;;5090023;28;20231;-74
2021/07/12 08:40:00;;;;;;;4.53;4.22;;;24.60;99.90;;;;;;5089407;28;20643;-74
2021/07/12 08:42:27;;;;;;;4.93;4.70;;;24.60;99.90;;;;;;5089786;28;20298;-74
2021/07/12 08:44:54;;;;;;;6.18;4.60;;;24.70;99.90;;;;;;5089840;28;20231;-74
2021/07/12 08:47:21;;;;;;;4.90;4.70;;;24.70;99.90;;;;;;5089904;28;20258;-74
2021/07/12 08:49:48;;;;;;;5.40;4.90;;;24.80;99.90;;;;;;5089521;28;20210;-74
2021/07/12 08:52:15;;;;;;;5.38;5.07;;;24.80;99.90;;;;;;5089492;28;20821;-74
2021/07/12 08:54:43;;;;;;;5.63;5.20;;;24.80;99.90;;;;;;5089801;28;20292;-74
2021/07/12 08:57:10;;;;;;;5.30;4.97;;;24.90;99.90;;;;;;5089814;28;20237;-74
2021/07/12 08:59:41;;;;;;;5.50;5.10;;;24.90;99.90;;;;;;5089603;28;20257;-74
2021/07/12 09:02:09;;;;;;;5.82;5.32;;;25.00;99.90;;;;;;5089699;28;20194;-74
2021/07/12 09:04:38;;;;;;;6.20;5.57;;;25.00;99.90;;;;;;5089142;28;21064;-74
2021/07/12 09:07:07;;;;;;;6.00;5.65;;;25.10;99.90;;;;;;5089554;28;20209;-74
2021/07/12 09:09:34;;;;;;;5.68;5.28;;;25.10;99.90;;;;;;5089005;28;20231;-74
2021/07/12 09:12:14;;;;;;;5.50;5.00;;;25.20;99.90;;;;;;5089501;28;20223;-74
2021/07/12 09:14:41;;;;;;;5.30;4.90;;;25.30;99.90;;;;;;5089435;28;20293;-74
2021/07/12 09:17:08;;;;;;;5.60;5.40;;;25.40;99.90;;;;;;5089133;28;20863;-74
2021/07/12 09:19:37;;;;;;;5.70;5.30;;;25.50;99.90;;;;;;5089032;28;20210;-74
2021/07/12 09:22:06;;;;;;;5.70;5.30;;;25.60;99.90;;;;;;5089384;28;20283;-74
2021/07/12 09:24:36;;;;;;;5.47;5.05;;;25.60;99.90;;;;;;5088577;28;20266;-74
2021/07/12 09:27:08;;;;;;;5.78;5.47;;;25.70;99.90;;;;;;5089137;28;20198;-74
2021/07/12 09:29:37;;;;;;;5.50;5.20;;;25.80;99.90;;;;;;5088798;28;20230;-74
2021/07/12 09:32:06;;;;;;;5.88;5.40;;;25.80;99.90;;;;;;5089128;28;20245;-74
2021/07/12 09:34:33;;;;;;;6.38;5.82;;;25.80;99.90;;;;;;5088653;28;20518;-74
2021/07/12 09:36:59;;;;;;;5.57;5.25;;;25.70;99.90;;;;;;5088906;28;20260;-74
2021/07/12 09:39:33;;;;;;;5.50;5.20;;;25.70;99.90;;;;;;5088831;28;20671;-74
2021/07/12 09:42:02;;;;;;;5.82;5.53;;;25.70;99.90;;;;;;5088723;28;20745;-74
2021/07/12 09:44:29;;;;;;;6.40;5.90;;;25.80;99.90;;;;;;5088806;28;20614;-74
2021/07/12 09:47:05;;;;;;;6.53;5.82;;;25.80;99.90;;;;;;5088867;28;20229;-74
2021/07/12 09:49:32;;;;;;;5.78;5.40;;;25.80;99.90;;;;;;5088792;28;20230;-74
2021/07/12 09:52:01;;;;;;;5.43;5.13;;;25.80;99.90;;;;;;5088844;28;20264;-75
2021/07/12 09:54:31;;;;;;;6.07;5.75;;;25.90;99.90;;;;;;5088881;28;20278;-74
2021/07/12 09:57:04;;;;;;;6.15;5.65;;;25.90;99.90;;;;;;5088723;28;20195;-74
2021/07/12 09:59:32;;;;;;;5.75;5.45;;;26.00;99.90;;;;;;5088238;28;20648;-74
2021/07/12 10:02:00;;;;;;;6.70;6.10;;;26.00;99.90;;;;;;5088725;28;20661;-74
2021/07/12 10:04:28;;;;;;;6.15;5.78;;;26.00;99.90;;;;;;5088294;28;20226;-74
2021/07/12 10:06:55;;;;;;;5.57;5.15;;;26.10;99.90;;;;;;5088569;28;20202;-74
2021/07/12 10:09:24;;;;;;;5.55;5.15;;;26.10;99.90;;;;;;5088003;28;20242;-74
2021/07/12 10:11:52;;;;;;;5.40;5.10;;;26.20;99.90;;;;;;5088332;28;20229;-74
2021/07/12 10:14:19;;;;;;;5.45;5.07;;;26.30;99.90;;;;;;5088505;28;20202;-74
2021/07/12 10:16:46;;;;;;;5.20;4.90;;;26.40;99.90;;;;;;5088325;28;20279;-74
2021/07/12 10:19:14;;;;;;;5.50;5.20;;;26.40;99.90;;;;;;5088412;28;20230;-75
2021/07/12 10:21:46;;;;;;;7.05;5.43;;;26.40;99.90;;;;;;5088366;28;20234;-74
2021/07/12 10:24:13;;;;;;;6.00;5.50;;;26.40;99.90;;;;;;5088240;28;20253;-74
2021/07/12 10:26:59;;;;;;;5.40;5.10;;;26.50;99.90;;;;;;5088251;28;20285;-74
2021/07/12 10:29:30;;;;;;;4.97;4.78;;;26.60;99.90;;;;;;5088200;28;20202;-75
2021/07/12 10:32:03;;;;;;;5.03;4.70;;;26.70;99.90;;;;;;5088356;28;20191;-74
2021/07/12 10:34:35;;;;;;;5.70;5.40;;;26.80;99.90;;;;;;5088260;28;20226;-75
2021/07/12 10:37:04;;;;;;;5.78;5.47;;;26.80;99.90;;;;;;5088340;28;20211;-74
2021/07/12 10:40:08;;;;;;;5.22;4.93;;;26.90;99.90;;;;;;5088169;28;20202;-75
2021/07/12 10:42:55;;;;;;;6.03;5.53;;;26.90;99.90;;;;;;5090341;28;20638;-74
2021/07/12 10:45:50;;;;;;;6.32;5.82;;;26.90;99.90;;;;;;5091813;28;20745;-74
2021/07/12 10:48:17;;;;;;;6.78;6.18;;;26.90;99.90;;;;;;5091533;28;20585;-74
2021/07/12 10:50:53;;;;;;;7.13;6.13;;;26.90;99.90;;;;;;5092140;28;20199;-75
2021/07/12 10:53:37;;;;;;;6.22;5.93;;;26.90;99.90;;;;;;5092185;28;20187;-74
2021/07/12 10:56:07;;;;;;;6.35;6.05;;;26.90;99.90;;;;;;5092145;28;20229;-74
2021/07/12 10:58:43;;;;;;;6.97;6.57;;;26.80;99.90;;;;;;5091968;28;20229;-75
2021/07/12 11:01:11;;;;;;;7.22;6.55;;;26.70;99.90;;;;;;5092152;28;20211;-74
2021/07/12 11:03:40;;;;;;;7.57;6.97;;;26.70;99.90;;;;;;5091811;28;20239;-74
2021/07/12 11:06:10;;;;;;;7.20;6.80;;;26.70;99.90;;;;;;5091910;28;20242;-74
2021/07/12 11:08:44;;;;;;;7.53;6.95;;;26.70;99.90;;;;;;5091592;28;20274;-74
2021/07/12 11:11:12;;;;;;;7.60;6.88;;;26.80;99.90;;;;;;5091612;28;20207;-75
2021/07/12 11:13:50;;;;;;;7.60;7.07;;;26.70;99.90;;;;;;5091265;28;20284;-75
2021/07/12 11:16:17;;;;;;;7.03;6.63;;;26.60;99.90;;;;;;5091651;28;20295;-75
2021/07/12 11:18:44;;;;;;;6.82;6.43;;;26.60;99.90;;;;;;5091683;28;20242;-74
2021/07/12 11:21:14;;;;;;;7.80;7.25;;;26.60;99.90;;;;;;5091670;28;20230;-75
2021/07/12 11:23:55;;;;;;;7.35;6.93;;;26.50;99.90;;;;;;5091061;28;20210;-75
2021/07/12 11:26:56;;;;;;;6.63;6.22;;;26.50;99.90;;;;;;5091385;28;20259;-74
2021/07/12 11:29:41;;;;;;;7.70;7.10;;;26.70;99.90;;;;;;5091322;28;20187;-75
2021/07/12 11:32:10;;;;;;;7.13;6.63;;;26.80;99.90;;;;;;5089200;28;20695;-75
2021/07/12 11:34:39;;;;;;;7.00;6.50;;;27.10;99.90;;;;;;5090885;28;20207;-74
2021/07/12 11:37:09;;;;;;;6.72;6.28;;;27.30;99.90;;;;;;5091127;28;20203;-74
2021/07/12 11:39:38;;;;;;;6.88;6.47;;;27.60;99.90;;;;;;5091080;28;20195;-75
2021/07/12 11:42:15;;;;;;;7.03;6.63;;;27.70;99.90;;;;;;5091035;28;20199;-75
2021/07/12 11:44:49;;;;;;;6.30;6.00;;;28.00;99.90;;;;;;5090833;28;20258;-75
2021/07/12 11:47:17;;;;;;;6.45;6.13;;;28.10;99.90;;;;;;5091125;28;20219;-75
2021/07/12 11:49:50;;;;;;;6.75;6.35;;;28.20;99.90;;;;;;5090566;28;20730;-75
2021/07/12 11:52:18;;;;;;;7.32;6.80;;;28.10;99.90;;;;;;5090333;28;20202;-75
2021/07/12 11:54:45;;;;;;;6.45;6.05;;;27.90;99.90;;;;;;5090946;28;20213;-75
2021/07/12 11:57:14;;;;;;;6.45;6.13;;;27.80;99.90;;;;;;5090924;28;20238;-75
2021/07/12 11:59:42;;;;;;;6.88;6.28;;;27.70;99.90;;;;;;5090585;28;20222;-75
2021/07/12 12:02:11;;;;;;;6.38;5.93;;;27.70;99.90;;;;;;5090616;28;20202;-75
2021/07/12 12:04:47;;;;;;;6.78;6.38;;;27.60;99.90;;;;;;5090434;28;20321;-75
2021/07/12 12:07:23;;;;;;;6.85;6.35;;;27.40;99.90;;;;;;5090765;28;20294;-75
2021/07/12 12:09:51;;;;;;;6.90;6.35;;;27.30;99.90;;;;;;5089905;28;20352;-75
2021/07/12 12:12:21;;;;;;;6.93;6.53;;;27.40;99.90;;;;;;5090645;28;20280;-75
2021/07/12 12:14:48;;;;;;;6.78;6.20;;;27.40;99.90;;;;;;5090725;28;20287;-74
2021/07/12 12:17:15;;;;;;;7.00;6.70;;;27.40;99.90;;;;;;5090683;28;20268;-75
2021/07/12 12:19:41;;;;;;;6.55;6.15;;;27.30;99.90;;;;;;5090333;28;20581;-74
2021/07/12 12:22:08;;;;;;;6.50;6.20;;;27.50;99.90;;;;;;5090598;28;20222;-74
2021/07/12 12:24:37;;;;;;;6.55;6.20;;;27.80;99.90;;;;;;5090204;28;20225;-75
2021/07/12 12:27:04;;;;;;;7.18;6.68;;;28.20;99.90;;;;;;5089984;28;20293;-75
2021/07/12 12:29:30;;;;;;;6.82;6.47;;;28.50;99.90;;;;;;5089841;28;20560;-75
2021/07/12 12:31:57;;;;;;;6.88;6.47;;;28.70;99.90;;;;;;5090263;28;20333;-75
2021/07/12 12:34:33;;;;;;;7.50;6.90;;;28.90;99.90;;;;;;5090043;28;20286;-74
2021/07/12 12:37:02;;;;;;;6.53;6.20;;;29.10;99.90;;;;;;5090008;28;20305;-74
2021/07/12 12:39:28;;;;;;;7.07;6.68;;;29.30;99.90;;;;;;5090057;28;20238;-74
2021/07/12 12:41:57;;;;;;;6.53;6.22;;;29.40;99.90;;;;;;5090027;28;20207;-74
2021/07/12 12:44:32;;;;;;;6.47;5.97;;;29.60;99.90;;;;;;5089729;28;20227;-75
2021/07/12 12:47:00;;;;;;;6.22;5.82;;;29.70;99.90;;;;;;5090040;28;20245;-75
2021/07/12 12:49:33;;;;;;;6.97;6.60;;;29.60;99.90;;;;;;5089585;28;20234;-75
2021/07/12 12:52:01;;;;;;;7.03;6.43;;;29.50;99.90;;;;;;5089877;28;20229;-75
2021/07/12 12:54:30;;;;;;;6.65;6.32;;;29.30;99.90;;;;;;5089726;28;20206;-75
2021/07/12 12:57:00;;;;;;;7.05;6.55;;;29.10;99.90;;;;;;5089680;28;20246;-75
2021/07/12 12:59:31;;;;;;;6.32;6.03;;;29.00;99.90;;;;;;5089636;28;20237;-75